createdAt,value
2022-11-28T00:01:35.892Z,37.45
2022-11-28T00:04:04.902Z,40.38
2022-11-28T00:06:32.370Z,40.70
2022-11-28T00:09:00.780Z,37.35
2022-11-28T00:11:28.049Z,41.60
2022-11-28T00:13:55.619Z,40.25
2022-11-28T00:16:24.271Z,42.75
2022-11-28T00:18:53.853Z,42.70
2022-11-28T00:21:21.917Z,47.20
2022-11-28T00:23:49.752Z,40.78
2022-11-28T00:26:25.072Z,44.70
2022-11-28T00:28:52.770Z,46.25
2022-11-28T00:31:24.344Z,44.05
2022-11-28T00:33:51.749Z,45.88
2022-11-28T00:36:20.209Z,36.13
2022-11-28T00:38:47.424Z,36.53
2022-11-28T00:41:18.370Z,36.05
2022-11-28T00:43:46.965Z,34.85
2022-11-28T00:46:16.558Z,33.92
2022-11-28T00:48:44.363Z,31.05
2022-11-28T00:51:19.791Z,35.65
2022-11-28T00:53:49.413Z,36.30
2022-11-28T00:56:21.318Z,37.08
2022-11-28T00:58:51.320Z,38.25
2022-11-28T01:01:27.331Z,37.63
2022-11-28T01:03:58.684Z,37.63
2022-11-28T01:06:31.741Z,33.15
2022-11-28T01:09:02.404Z,38.88
2022-11-28T01:11:30.381Z,37.25
2022-11-28T01:14:00.127Z,37.83
2022-11-28T01:16:28.610Z,40.78
2022-11-28T01:18:55.535Z,42.58
2022-11-28T01:21:23.934Z,41.65
2022-11-28T01:23:51.147Z,40.75
2022-11-28T01:26:26.750Z,37.20
2022-11-28T01:28:54.900Z,39.10
2022-11-28T01:31:28.761Z,40.92
2022-11-28T01:33:57.106Z,37.63
2022-11-28T01:36:25.232Z,38.20
2022-11-28T01:38:53.512Z,39.25
2022-11-28T01:41:25.761Z,34.45
2022-11-28T01:44:29.917Z,38.13
2022-11-28T01:46:57.037Z,33.38
2022-11-28T01:49:36.055Z,35.95
2022-11-28T01:52:14.713Z,35.42
2022-11-28T01:54:46.199Z,30.08
2022-11-28T01:57:21.791Z,32.30
2022-11-28T02:00:05.466Z,29.63
2022-11-28T02:02:46.358Z,34.40
2022-11-28T02:05:14.617Z,32.22
2022-11-28T02:07:44.093Z,33.67
2022-11-28T02:10:18.034Z,34.47
2022-11-28T02:13:11.274Z,32.53
2022-11-28T02:15:55.774Z,36.28
2022-11-28T02:18:58.550Z,35.40
2022-11-28T02:21:54.181Z,32.75
2022-11-28T02:24:43.270Z,32.13
2022-11-28T02:27:28.575Z,28.45
2022-11-28T02:32:55.449Z,28.60
2022-11-28T02:35:39.261Z,25.60
2022-11-28T02:38:48.876Z,25.35
2022-11-28T02:41:34.823Z,29.63
2022-11-28T02:44:14.485Z,31.42
2022-11-28T02:46:56.672Z,29.17
2022-11-28T02:49:34.080Z,29.95
2022-11-28T02:52:09.801Z,38.05
2022-11-28T02:54:39.494Z,33.38
2022-11-28T02:57:08.243Z,33.97
2022-11-28T02:59:38.186Z,29.63
2022-11-28T03:02:33.992Z,33.22
2022-11-28T03:05:42.466Z,36.15
2022-11-28T03:08:36.543Z,35.60
2022-11-28T03:11:44.450Z,34.95
2022-11-28T03:14:59.725Z,31.52
2022-11-28T03:18:11.492Z,32.53
2022-11-28T03:21:31.939Z,38.22
2022-11-28T03:24:07.110Z,39.47
2022-11-28T03:26:54.571Z,29.85
2022-11-28T03:29:33.597Z,34.72
2022-11-28T03:32:06.965Z,30.02
2022-11-28T03:34:41.348Z,31.65
2022-11-28T03:37:20.699Z,28.23
2022-11-28T03:39:57.618Z,33.50
2022-11-28T03:42:29.836Z,32.78
2022-11-28T03:45:24.344Z,32.22
2022-11-28T03:48:00.983Z,35.35
2022-11-28T03:50:40.626Z,31.00
2022-11-28T03:53:20.575Z,30.25
2022-11-28T03:56:20.040Z,37.10
2022-11-28T03:59:00.466Z,30.83
2022-11-28T04:01:41.286Z,32.60
2022-11-28T04:04:25.155Z,28.25
2022-11-28T04:07:28.392Z,26.80
2022-11-28T04:10:34.727Z,34.78
2022-11-28T04:13:11.085Z,31.33
2022-11-28T04:15:59.548Z,29.92
2022-11-28T04:19:01.467Z,26.50
2022-11-28T04:21:43.679Z,29.10
2022-11-28T04:24:23.360Z,31.33
2022-11-28T04:27:05.492Z,35.05
2022-11-28T04:29:39.448Z,29.30
2022-11-28T04:32:11.649Z,28.45
2022-11-28T04:34:45.320Z,27.83
2022-11-28T04:37:15.995Z,33.03
2022-11-28T04:39:48.552Z,29.42
2022-11-28T04:42:23.798Z,25.30
2022-11-28T04:45:12.762Z,29.58
2022-11-28T04:47:40.049Z,32.58
2022-11-28T04:50:08.189Z,25.67
2022-11-28T04:53:09.522Z,28.75
2022-11-28T04:55:49.078Z,27.55
2022-11-28T04:58:26.146Z,31.63
2022-11-28T05:00:56.043Z,30.42
2022-11-28T05:03:28.656Z,31.80
2022-11-28T05:05:55.657Z,27.40
2022-11-28T05:08:22.953Z,34.10
2022-11-28T05:10:49.963Z,32.00
2022-11-28T05:13:17.146Z,33.75
2022-11-28T05:15:44.022Z,34.92
2022-11-28T05:18:11.154Z,40.63
2022-11-28T05:20:39.254Z,33.13
2022-11-28T05:23:07.015Z,30.02
2022-11-28T05:25:33.880Z,36.10
2022-11-28T05:28:01.181Z,33.13
2022-11-28T05:30:28.129Z,29.25
2022-11-28T05:32:55.750Z,29.27
2022-11-28T05:35:23.465Z,28.65
2022-11-28T05:37:50.510Z,31.50
2022-11-28T05:40:17.445Z,27.50
2022-11-28T05:42:45.220Z,30.15
2022-11-28T05:45:12.040Z,28.60
2022-11-28T05:47:39.202Z,26.17
2022-11-28T05:50:08.093Z,21.88
2022-11-28T05:52:35.761Z,22.48
2022-11-28T05:55:02.673Z,22.50
2022-11-28T05:57:32.132Z,22.83
2022-11-28T05:59:59.047Z,27.65
2022-11-28T06:02:26.242Z,21.83
2022-11-28T06:04:53.255Z,23.33
2022-11-28T06:07:20.492Z,26.13
2022-11-28T06:09:47.626Z,23.35
2022-11-28T06:12:14.704Z,24.45
2022-11-28T06:14:41.535Z,22.15
2022-11-28T06:17:08.610Z,21.80
2022-11-28T06:19:35.461Z,25.02
2022-11-28T06:22:02.711Z,23.00
2022-11-28T06:24:29.619Z,20.55
2022-11-28T06:26:56.906Z,23.33
2022-11-28T06:29:23.730Z,23.08
2022-11-28T06:31:50.954Z,23.15
2022-11-28T06:34:17.936Z,25.13
2022-11-28T06:36:45.318Z,21.50
2022-11-28T06:39:15.544Z,22.25
2022-11-28T06:41:43.586Z,19.73
2022-11-28T06:44:17.736Z,29.48
2022-11-28T06:46:45.307Z,25.73
2022-11-28T06:49:13.554Z,30.92
2022-11-28T06:51:42.629Z,22.83
2022-11-28T06:54:10.066Z,24.42
2022-11-28T06:56:39.854Z,29.40
2022-11-28T06:59:07.214Z,22.63
2022-11-28T07:01:34.601Z,21.65
2022-11-28T07:04:02.180Z,24.77
2022-11-28T07:06:29.518Z,22.30
2022-11-28T07:08:58.740Z,24.38
2022-11-28T07:11:30.891Z,21.30
2022-11-28T07:14:01.706Z,18.25
2022-11-28T07:16:32.547Z,26.13
2022-11-28T07:19:00.056Z,26.20
2022-11-28T07:21:29.452Z,22.35
2022-11-28T07:23:59.318Z,24.77
2022-11-28T07:26:26.973Z,23.05
2022-11-28T07:28:56.041Z,21.83
2022-11-28T07:31:32.029Z,21.77
2022-11-28T07:34:03.299Z,24.13
2022-11-28T07:36:31.566Z,23.15
2022-11-28T07:39:01.232Z,24.10
2022-11-28T07:41:29.389Z,20.38
2022-11-28T07:44:02.457Z,27.20
2022-11-28T07:46:32.154Z,21.33
2022-11-28T07:48:59.848Z,24.30
2022-11-28T07:51:33.478Z,26.85
2022-11-28T07:54:02.907Z,26.73
2022-11-28T07:57:04.571Z,27.13
2022-11-28T07:59:22.516Z,22.45
2022-11-28T08:01:50.196Z,26.30
2022-11-28T08:04:17.279Z,22.60
2022-11-28T08:06:44.807Z,24.02
2022-11-28T08:09:12.225Z,23.58
2022-11-28T08:11:40.520Z,26.67
2022-11-28T08:14:07.395Z,27.77
2022-11-28T08:16:34.984Z,33.55
2022-11-28T08:19:02.777Z,26.10
2022-11-28T08:21:33.723Z,29.70
2022-11-28T08:24:02.694Z,23.85
2022-11-28T08:26:32.492Z,22.20
2022-11-28T08:29:02.093Z,22.33
2022-11-28T08:31:37.432Z,29.65
2022-11-28T08:34:09.662Z,31.55
2022-11-28T08:36:37.834Z,31.63
2022-11-28T08:41:59.940Z,24.17
2022-11-28T08:44:30.280Z,26.38
2022-11-28T08:46:57.979Z,27.75
2022-11-28T08:49:24.851Z,27.98
2022-11-28T08:51:52.060Z,25.20
2022-11-28T08:54:18.866Z,26.80
2022-11-28T08:56:48.593Z,33.47
2022-11-28T08:59:16.024Z,35.58
2022-11-28T09:01:43.315Z,30.35
2022-11-28T09:04:10.419Z,25.70
2022-11-28T09:06:41.119Z,30.77
2022-11-28T09:09:09.129Z,27.98
2022-11-28T09:11:36.946Z,23.50
2022-11-28T09:14:03.852Z,26.45
2022-11-28T09:16:31.391Z,21.08
2022-11-28T09:18:59.655Z,26.17
2022-11-28T09:21:27.166Z,24.98
2022-11-28T09:23:56.648Z,25.20
2022-11-28T09:26:25.488Z,28.73
2022-11-28T09:28:53.903Z,26.88
2022-11-28T09:31:22.776Z,31.35
2022-11-28T09:33:50.401Z,26.33
2022-11-28T09:36:21.629Z,25.02
2022-11-28T09:38:48.793Z,32.35
2022-11-28T09:41:44.284Z,33.55
2022-11-28T09:44:38.827Z,31.65
2022-11-28T09:47:18.821Z,28.60
2022-11-28T09:50:15.412Z,26.70
2022-11-28T09:53:23.208Z,27.25
2022-11-28T09:55:55.954Z,28.63
2022-11-28T09:58:53.919Z,23.15
2022-11-28T10:01:42.287Z,24.80
2022-11-28T10:04:21.522Z,28.88
2022-11-28T10:07:19.651Z,27.48
2022-11-28T10:10:02.833Z,25.98
2022-11-28T10:13:03.928Z,25.55
2022-11-28T10:16:07.702Z,26.55
2022-11-28T10:18:47.857Z,27.98
2022-11-28T10:21:31.358Z,26.63
2022-11-28T10:24:05.094Z,29.20
2022-11-28T10:26:38.347Z,23.67
2022-11-28T10:29:29.735Z,25.48
2022-11-28T10:32:04.805Z,28.20
2022-11-28T10:34:53.293Z,27.23
2022-11-28T10:37:31.160Z,26.90
2022-11-28T10:40:54.471Z,26.70
2022-11-28T10:43:33.499Z,23.30
2022-11-28T10:46:57.510Z,27.17
2022-11-28T10:50:04.682Z,22.75
2022-11-28T10:52:47.804Z,26.80
2022-11-28T10:56:08.433Z,26.75
2022-11-28T10:59:04.463Z,26.83
2022-11-28T11:01:43.737Z,27.45
2022-11-28T11:04:26.682Z,25.98
2022-11-28T11:07:21.729Z,30.20
2022-11-28T11:09:52.200Z,29.88
2022-11-28T11:12:32.336Z,30.65
2022-11-28T11:14:59.236Z,26.77
2022-11-28T11:17:37.966Z,25.67
2022-11-28T11:20:32.236Z,26.02
2022-11-28T11:23:22.008Z,24.90
2022-11-28T11:25:55.322Z,27.05
2022-11-28T11:28:28.197Z,26.13
2022-11-28T11:31:05.878Z,26.88
2022-11-28T11:33:38.269Z,27.98
2022-11-28T11:36:29.243Z,29.70
2022-11-28T11:39:15.874Z,26.30
2022-11-28T11:42:09.506Z,27.05
2022-11-28T11:44:38.641Z,24.58
2022-11-28T11:47:08.016Z,33.20
2022-11-28T11:49:44.068Z,27.33
2022-11-28T11:52:28.064Z,25.35
2022-11-28T11:54:58.312Z,26.58
2022-11-28T11:57:38.034Z,24.83
2022-11-28T12:00:14.927Z,23.90
2022-11-28T12:02:57.083Z,23.58
2022-11-28T12:06:12.802Z,26.23
2022-11-28T12:08:45.027Z,26.85
2022-11-28T12:11:34.165Z,24.60
2022-11-28T12:14:27.489Z,23.27
2022-11-28T12:17:57.141Z,22.92
2022-11-28T12:20:58.517Z,25.25
2022-11-28T12:23:52.959Z,26.05
2022-11-28T12:26:41.835Z,22.98
2022-11-28T12:29:27.725Z,26.45
2022-11-28T12:32:26.039Z,26.30
2022-11-28T12:35:30.035Z,25.48
2022-11-28T12:38:44.642Z,32.30
2022-11-28T12:41:30.702Z,23.25
2022-11-28T12:44:28.220Z,23.55
2022-11-28T12:47:06.371Z,27.15
2022-11-28T12:50:18.085Z,25.13
2022-11-28T12:53:13.030Z,28.60
2022-11-28T12:56:07.015Z,24.67
2022-11-28T12:58:55.209Z,29.67
2022-11-28T13:02:06.685Z,29.20
2022-11-28T13:04:56.685Z,26.23
2022-11-28T13:07:48.817Z,25.13
2022-11-28T13:10:39.360Z,26.55
2022-11-28T13:13:39.860Z,23.77
2022-11-28T13:16:33.648Z,27.52
2022-11-28T13:19:07.032Z,22.85
2022-11-28T13:21:59.898Z,28.75
2022-11-28T13:24:42.456Z,22.88
2022-11-28T13:27:33.314Z,28.05
2022-11-28T13:30:24.445Z,24.38
2022-11-28T13:33:07.543Z,22.85
2022-11-28T13:35:35.401Z,27.75
2022-11-28T13:38:50.495Z,25.10
2022-11-28T13:42:21.445Z,23.17
2022-11-28T13:44:50.340Z,24.45
2022-11-28T13:47:23.050Z,25.83
2022-11-28T13:49:50.872Z,27.25
2022-11-28T13:52:17.714Z,28.75
2022-11-28T13:54:50.837Z,24.83
2022-11-28T13:57:30.402Z,25.17
2022-11-28T14:00:19.591Z,23.30
2022-11-28T14:03:00.108Z,27.40
2022-11-28T14:05:41.672Z,21.13
2022-11-28T14:08:28.058Z,25.80
2022-11-28T14:11:33.452Z,31.55
2022-11-28T14:14:45.696Z,22.90
2022-11-28T14:17:28.262Z,26.33
2022-11-28T14:20:05.917Z,29.20
2022-11-28T14:23:09.035Z,22.15
2022-11-28T14:25:49.678Z,31.17
2022-11-28T14:28:27.318Z,30.48
2022-11-28T14:31:32.107Z,26.35
2022-11-28T14:34:22.130Z,29.33
2022-11-28T14:37:21.286Z,33.15
2022-11-28T14:39:53.168Z,25.48
2022-11-28T14:45:44.954Z,28.90
2022-11-28T14:48:23.856Z,26.90
2022-11-28T14:51:00.641Z,29.20
2022-11-28T14:53:34.810Z,26.60
2022-11-28T14:56:25.846Z,35.35
2022-11-28T14:59:00.218Z,31.90
2022-11-28T15:02:13.783Z,26.02
2022-11-28T15:04:54.854Z,27.90
2022-11-28T15:08:16.030Z,29.58
2022-11-28T15:11:08.453Z,37.85
2022-11-28T15:14:05.986Z,29.92
2022-11-28T15:16:35.339Z,33.28
2022-11-28T15:19:45.192Z,25.08
2022-11-28T15:22:41.763Z,30.30
2022-11-28T15:25:21.290Z,28.23
2022-11-28T15:27:49.100Z,23.33
2022-11-28T15:30:26.758Z,27.98
2022-11-28T15:33:00.942Z,25.80
2022-11-28T15:35:29.150Z,24.83
2022-11-28T15:37:58.494Z,27.00
2022-11-28T15:40:37.467Z,32.17
2022-11-28T15:43:12.486Z,33.15
2022-11-28T15:45:42.405Z,26.35
2022-11-28T15:48:39.864Z,27.85
2022-11-28T15:51:09.518Z,27.17
2022-11-28T15:53:42.438Z,23.33
2022-11-28T15:56:15.623Z,28.83
2022-11-28T15:58:48.961Z,26.23
2022-11-28T16:04:05.241Z,36.35
2022-11-28T16:06:39.380Z,31.00
2022-11-28T16:09:20.077Z,33.55
2022-11-28T16:11:53.096Z,34.90
2022-11-28T16:14:37.608Z,31.63
2022-11-28T16:17:20.619Z,30.08
2022-11-28T16:19:52.878Z,35.97
2022-11-28T16:22:27.495Z,29.75
2022-11-28T16:24:56.102Z,36.60
2022-11-28T16:27:38.177Z,28.00
2022-11-28T16:30:48.041Z,34.88
2022-11-28T16:33:43.663Z,33.88
2022-11-28T16:36:37.719Z,26.17
2022-11-28T16:39:15.741Z,30.63
2022-11-28T16:41:52.230Z,28.00
2022-11-28T16:44:23.813Z,29.48
2022-11-28T16:46:58.923Z,24.13
2022-11-28T16:50:14.069Z,27.67
2022-11-28T16:52:54.897Z,28.38
2022-11-28T16:55:41.980Z,34.35
2022-11-28T16:58:21.694Z,25.90
2022-11-28T17:01:02.364Z,32.10
2022-11-28T17:04:02.713Z,30.75
2022-11-28T17:06:37.613Z,26.70
2022-11-28T17:09:12.213Z,30.33
2022-11-28T17:11:46.405Z,29.30
2022-11-28T17:14:14.693Z,28.05
2022-11-28T17:16:43.353Z,28.23
2022-11-28T17:19:10.390Z,34.30
2022-11-28T17:21:43.654Z,31.17
2022-11-28T17:24:33.968Z,29.00
2022-11-28T17:27:02.174Z,25.73
2022-11-28T17:29:30.048Z,27.42
2022-11-28T17:31:59.001Z,28.10
2022-11-28T17:34:32.712Z,30.48
2022-11-28T17:37:03.058Z,28.98
2022-11-28T17:39:30.274Z,29.25
2022-11-28T17:41:59.189Z,29.85
2022-11-28T17:44:29.349Z,27.55
2022-11-28T17:46:58.636Z,30.60
2022-11-28T17:49:25.637Z,29.13
2022-11-28T17:51:55.257Z,31.58
2022-11-28T17:54:25.048Z,29.10
2022-11-28T17:56:54.059Z,35.05
2022-11-28T17:59:24.278Z,29.20
2022-11-28T18:01:51.679Z,28.58
2022-11-28T18:04:19.501Z,31.80
2022-11-28T18:06:47.821Z,32.50
2022-11-28T18:09:46.534Z,31.55
2022-11-28T18:12:27.192Z,29.80
2022-11-28T18:14:54.571Z,32.85
2022-11-28T18:17:21.765Z,36.58
2022-11-28T18:19:52.027Z,37.35
2022-11-28T18:22:22.012Z,37.58
2022-11-28T18:24:48.989Z,30.15
2022-11-28T18:27:16.293Z,31.55
2022-11-28T18:29:43.773Z,30.77
2022-11-28T18:32:11.439Z,31.65
2022-11-28T18:34:39.890Z,33.90
2022-11-28T18:37:07.345Z,42.53
2022-11-28T18:39:34.959Z,36.50
2022-11-28T18:42:02.246Z,32.03
2022-11-28T18:44:29.314Z,34.38
2022-11-28T18:46:56.443Z,29.10
2022-11-28T18:49:23.456Z,32.25
2022-11-28T18:51:51.380Z,31.83
2022-11-28T18:54:21.445Z,32.00
2022-11-28T18:56:49.498Z,28.60
2022-11-28T18:59:16.403Z,29.40
2022-11-28T19:01:43.612Z,31.20
2022-11-28T19:04:13.387Z,30.55
2022-11-28T19:06:42.917Z,35.83
2022-11-28T19:09:14.730Z,31.25
2022-11-28T19:11:44.365Z,30.67
2022-11-28T19:14:18.047Z,27.17
2022-11-28T19:16:47.104Z,31.33
2022-11-28T19:19:17.214Z,34.47
2022-11-28T19:21:44.984Z,35.70
2022-11-28T19:24:12.963Z,32.30
2022-11-28T19:26:40.669Z,32.47
2022-11-28T19:29:08.154Z,34.80
2022-11-28T19:31:37.505Z,33.92
2022-11-28T19:34:11.949Z,29.77
2022-11-28T19:36:49.219Z,30.48
2022-11-28T19:39:22.663Z,30.75
2022-11-28T19:41:52.730Z,30.75
2022-11-28T19:44:24.646Z,35.67
2022-11-28T19:46:52.891Z,36.40
2022-11-28T19:49:23.827Z,31.40
2022-11-28T19:51:54.404Z,35.08
2022-11-28T19:54:21.783Z,36.10
2022-11-28T19:56:59.771Z,32.40
2022-11-28T19:59:27.685Z,32.67
2022-11-28T20:01:54.949Z,34.72
2022-11-28T20:04:22.531Z,30.80
2022-11-28T20:06:49.696Z,32.95
2022-11-28T20:09:16.541Z,36.17
2022-11-28T20:11:45.087Z,35.35
2022-11-28T20:14:19.300Z,37.50
2022-11-28T20:16:47.307Z,34.83
2022-11-28T20:19:15.075Z,36.08
2022-11-28T20:21:42.490Z,33.78
2022-11-28T20:24:10.756Z,33.58
2022-11-28T20:26:41.703Z,33.75
2022-11-28T20:29:12.277Z,35.50
2022-11-28T20:31:45.348Z,31.63
2022-11-28T20:34:17.696Z,31.60
2022-11-28T20:36:45.337Z,34.45
2022-11-28T20:39:13.464Z,32.33
2022-11-28T20:41:40.712Z,32.67
2022-11-28T20:44:08.282Z,36.08
2022-11-28T20:46:35.819Z,36.47
2022-11-28T20:49:07.038Z,37.90
2022-11-28T20:51:35.883Z,35.65
2022-11-28T20:54:05.585Z,35.60
2022-11-28T20:57:04.959Z,34.65
2022-11-28T20:59:26.508Z,34.50
2022-11-28T21:01:53.975Z,31.98
2022-11-28T21:04:20.960Z,33.80
2022-11-28T21:06:49.432Z,35.03
2022-11-28T21:09:18.507Z,35.55
2022-11-28T21:12:02.842Z,33.75
2022-11-28T21:14:29.752Z,33.80
2022-11-28T21:16:58.589Z,35.60
2022-11-28T21:19:25.919Z,32.72
2022-11-28T21:21:53.229Z,37.45
2022-11-28T21:24:20.185Z,35.67
2022-11-28T21:26:53.560Z,39.15
2022-11-28T21:29:23.330Z,43.60
2022-11-28T21:31:51.081Z,33.38
2022-11-28T21:34:19.539Z,35.30
2022-11-28T21:36:47.073Z,38.30
2022-11-28T21:39:18.781Z,38.22
2022-11-28T21:41:46.411Z,42.33
2022-11-28T21:44:13.293Z,37.53
2022-11-28T21:46:40.580Z,35.80
2022-11-28T21:49:07.803Z,34.67
2022-11-28T21:51:35.143Z,36.97
2022-11-28T21:54:02.810Z,36.63
2022-11-28T21:56:30.383Z,35.83
2022-11-28T21:58:57.314Z,32.17
2022-11-28T22:01:24.548Z,36.25
2022-11-28T22:03:51.576Z,37.10
2022-11-28T22:06:24.440Z,38.78
2022-11-28T22:08:53.665Z,37.67
2022-11-28T22:11:22.246Z,41.05
2022-11-28T22:13:50.083Z,34.85
2022-11-28T22:16:19.891Z,33.67
2022-11-28T22:18:48.975Z,35.95
2022-11-28T22:24:04.677Z,36.70
2022-11-28T22:26:32.451Z,37.80
2022-11-28T22:28:59.503Z,37.85
2022-11-28T22:31:26.885Z,37.33
2022-11-28T22:33:53.734Z,31.63
2022-11-28T22:36:22.584Z,38.03
2022-11-28T22:38:55.838Z,37.33
2022-11-28T22:41:28.820Z,35.42
2022-11-28T22:44:00.301Z,33.55
2022-11-28T22:46:28.570Z,31.52
2022-11-28T22:48:56.162Z,32.50
2022-11-28T22:51:26.054Z,31.15
2022-11-28T22:53:58.973Z,34.60
2022-11-28T22:56:27.394Z,31.58
2022-11-28T22:58:54.859Z,38.05
2022-11-28T23:01:29.213Z,35.25
2022-11-28T23:30:46.533Z,32.53
2022-11-28T23:33:17.727Z,36.20
2022-11-28T23:35:45.602Z,33.13
2022-11-28T23:38:15.719Z,35.50
2022-11-28T23:40:42.838Z,29.38
2022-11-28T23:43:10.234Z,30.88
2022-11-28T23:45:37.701Z,33.40
2022-11-28T23:48:05.450Z,30.27
2022-11-28T23:50:34.587Z,30.75
2022-11-28T23:53:01.726Z,33.45
2022-11-28T23:55:28.555Z,33.30
2022-11-28T23:57:55.886Z,40.67
